sensor_id;sensor_type;location;lat;lon;timestamp;P1;durP1;ratioP1;P2;durP2;ratioP2
59659;SDS011;45534;52.690;6.268;2023-10-13T00:00:25;26.97;;;16.57;;
59659;SDS011;45534;52.690;6.268;2023-10-13T00:03:05;21.38;;;12.60;;
59659;SDS011;45534;52.690;6.268;2023-10-13T00:05:40;19.17;;;11.18;;
59659;SDS011;45534;52.690;6.268;2023-10-13T00:08:07;20.65;;;11.73;;
59659;SDS011;45534;52.690;6.268;2023-10-13T00:10:36;22.00;;;10.85;;
59659;SDS011;45534;52.690;6.268;2023-10-13T00:13:02;17.92;;;11.45;;
59659;SDS011;45534;52.690;6.268;2023-10-13T00:15:38;23.00;;;13.30;;
59659;SDS011;45534;52.690;6.268;2023-10-13T00:18:28;26.95;;;12.73;;
59659;SDS011;45534;52.690;6.268;2023-10-13T00:21:03;16.48;;;11.75;;
59659;SDS011;45534;52.690;6.268;2023-10-13T00:23:38;26.25;;;13.85;;
59659;SDS011;45534;52.690;6.268;2023-10-13T00:26:23;26.13;;;12.18;;
59659;SDS011;45534;52.690;6.268;2023-10-13T00:28:52;21.67;;;14.48;;
59659;SDS011;45534;52.690;6.268;2023-10-13T00:31:35;20.70;;;13.63;;
59659;SDS011;45534;52.690;6.268;2023-10-13T00:34:03;21.80;;;14.13;;
59659;SDS011;45534;52.690;6.268;2023-10-13T00:36:50;27.80;;;14.80;;
59659;SDS011;45534;52.690;6.268;2023-10-13T00:39:34;23.17;;;16.23;;
59659;SDS011;45534;52.690;6.268;2023-10-13T00:42:05;18.67;;;12.77;;
59659;SDS011;45534;52.690;6.268;2023-10-13T00:44:43;22.77;;;15.07;;
59659;SDS011;45534;52.690;6.268;2023-10-13T00:47:18;24.00;;;14.25;;
59659;SDS011;45534;52.690;6.268;2023-10-13T00:50:04;18.73;;;13.10;;
59659;SDS011;45534;52.690;6.268;2023-10-13T00:52:30;29.60;;;12.88;;
59659;SDS011;45534;52.690;6.268;2023-10-13T00:55:00;23.63;;;12.60;;
59659;SDS011;45534;52.690;6.268;2023-10-13T00:57:26;28.02;;;20.10;;
59659;SDS011;45534;52.690;6.268;2023-10-13T00:59:55;30.08;;;16.60;;
59659;SDS011;45534;52.690;6.268;2023-10-13T01:02:37;22.00;;;13.77;;
59659;SDS011;45534;52.690;6.268;2023-10-13T01:05:03;22.10;;;15.10;;
59659;SDS011;45534;52.690;6.268;2023-10-13T01:07:30;22.58;;;16.83;;
59659;SDS011;45534;52.690;6.268;2023-10-13T01:09:55;29.40;;;17.40;;
59659;SDS011;45534;52.690;6.268;2023-10-13T01:12:21;21.23;;;15.43;;
59659;SDS011;45534;52.690;6.268;2023-10-13T01:14:50;26.58;;;15.93;;
59659;SDS011;45534;52.690;6.268;2023-10-13T01:17:16;29.13;;;18.25;;
59659;SDS011;45534;52.690;6.268;2023-10-13T01:19:43;22.88;;;15.13;;
59659;SDS011;45534;52.690;6.268;2023-10-13T01:22:10;20.00;;;14.55;;
59659;SDS011;45534;52.690;6.268;2023-10-13T01:24:36;20.58;;;12.90;;
59659;SDS011;45534;52.690;6.268;2023-10-13T01:27:03;22.38;;;13.15;;
59659;SDS011;45534;52.690;6.268;2023-10-13T01:29:45;21.48;;;12.93;;
59659;SDS011;45534;52.690;6.268;2023-10-13T01:32:21;21.55;;;15.80;;
59659;SDS011;45534;52.690;6.268;2023-10-13T01:34:47;17.83;;;12.80;;
59659;SDS011;45534;52.690;6.268;2023-10-13T01:37:14;20.65;;;14.32;;
59659;SDS011;45534;52.690;6.268;2023-10-13T01:39:44;26.40;;;16.17;;
59659;SDS011;45534;52.690;6.268;2023-10-13T01:42:12;22.55;;;14.52;;
59659;SDS011;45534;52.690;6.268;2023-10-13T01:44:44;22.90;;;17.08;;
59659;SDS011;45534;52.690;6.268;2023-10-13T01:47:10;21.67;;;13.30;;
59659;SDS011;45534;52.690;6.268;2023-10-13T01:49:37;21.63;;;12.93;;
59659;SDS011;45534;52.690;6.268;2023-10-13T01:52:23;17.27;;;15.05;;
59659;SDS011;45534;52.690;6.268;2023-10-13T01:54:50;18.05;;;10.48;;
59659;SDS011;45534;52.690;6.268;2023-10-13T01:57:16;18.65;;;14.43;;
59659;SDS011;45534;52.690;6.268;2023-10-13T01:59:48;26.35;;;16.35;;
59659;SDS011;45534;52.690;6.268;2023-10-13T02:02:14;17.05;;;9.90;;
59659;SDS011;45534;52.690;6.268;2023-10-13T02:04:53;22.38;;;14.85;;
59659;SDS011;45534;52.690;6.268;2023-10-13T02:07:25;20.10;;;12.30;;
59659;SDS011;45534;52.690;6.268;2023-10-13T02:09:57;19.80;;;14.30;;
59659;SDS011;45534;52.690;6.268;2023-10-13T02:12:23;21.75;;;15.80;;
59659;SDS011;45534;52.690;6.268;2023-10-13T02:15:07;23.00;;;12.63;;
59659;SDS011;45534;52.690;6.268;2023-10-13T02:17:47;18.60;;;12.77;;
59659;SDS011;45534;52.690;6.268;2023-10-13T02:20:16;16.60;;;10.70;;
59659;SDS011;45534;52.690;6.268;2023-10-13T02:22:55;18.55;;;12.35;;
59659;SDS011;45534;52.690;6.268;2023-10-13T02:25:21;21.90;;;13.55;;
59659;SDS011;45534;52.690;6.268;2023-10-13T02:28:05;16.15;;;10.95;;
59659;SDS011;45534;52.690;6.268;2023-10-13T02:30:41;21.08;;;14.30;;
59659;SDS011;45534;52.690;6.268;2023-10-13T02:33:11;15.75;;;11.10;;
59659;SDS011;45534;52.690;6.268;2023-10-13T02:35:38;22.23;;;13.48;;
59659;SDS011;45534;52.690;6.268;2023-10-13T02:38:09;17.70;;;10.50;;
59659;SDS011;45534;52.690;6.268;2023-10-13T02:40:38;23.90;;;15.45;;
59659;SDS011;45534;52.690;6.268;2023-10-13T02:43:04;19.70;;;13.38;;
59659;SDS011;45534;52.690;6.268;2023-10-13T02:45:31;15.00;;;9.30;;
59659;SDS011;45534;52.690;6.268;2023-10-13T02:48:00;17.38;;;9.10;;
59659;SDS011;45534;52.690;6.268;2023-10-13T02:50:42;14.90;;;9.52;;
59659;SDS011;45534;52.690;6.268;2023-10-13T02:53:09;18.05;;;10.38;;
59659;SDS011;45534;52.690;6.268;2023-10-13T02:55:37;11.75;;;7.03;;
59659;SDS011;45534;52.690;6.268;2023-10-13T02:58:29;15.77;;;11.68;;
59659;SDS011;45534;52.690;6.268;2023-10-13T03:01:04;16.63;;;10.43;;
59659;SDS011;45534;52.690;6.268;2023-10-13T03:03:45;10.55;;;8.18;;
59659;SDS011;45534;52.690;6.268;2023-10-13T03:06:16;19.60;;;9.63;;
59659;SDS011;45534;52.690;6.268;2023-10-13T03:08:47;12.98;;;9.45;;
59659;SDS011;45534;52.690;6.268;2023-10-13T03:11:13;14.63;;;9.65;;
59659;SDS011;45534;52.690;6.268;2023-10-13T03:13:39;16.30;;;10.05;;
59659;SDS011;45534;52.690;6.268;2023-10-13T03:16:13;18.95;;;9.80;;
59659;SDS011;45534;52.690;6.268;2023-10-13T03:18:41;18.02;;;9.90;;
59659;SDS011;45534;52.690;6.268;2023-10-13T03:21:17;15.23;;;10.77;;
59659;SDS011;45534;52.690;6.268;2023-10-13T03:23:57;17.23;;;12.68;;
59659;SDS011;45534;52.690;6.268;2023-10-13T03:26:30;14.18;;;10.60;;
59659;SDS011;45534;52.690;6.268;2023-10-13T03:29:03;16.70;;;9.93;;
59659;SDS011;45534;52.690;6.268;2023-10-13T03:31:33;18.98;;;12.18;;
59659;SDS011;45534;52.690;6.268;2023-10-13T03:34:03;17.30;;;9.95;;
59659;SDS011;45534;52.690;6.268;2023-10-13T03:36:29;16.75;;;9.75;;
59659;SDS011;45534;52.690;6.268;2023-10-13T03:39:21;13.85;;;7.53;;
59659;SDS011;45534;52.690;6.268;2023-10-13T03:41:53;13.85;;;8.48;;
59659;SDS011;45534;52.690;6.268;2023-10-13T03:44:19;9.40;;;6.72;;
59659;SDS011;45534;52.690;6.268;2023-10-13T03:46:45;13.25;;;8.43;;
59659;SDS011;45534;52.690;6.268;2023-10-13T03:49:14;16.35;;;9.02;;
59659;SDS011;45534;52.690;6.268;2023-10-13T03:51:45;13.60;;;9.98;;
59659;SDS011;45534;52.690;6.268;2023-10-13T03:54:13;15.10;;;8.85;;
59659;SDS011;45534;52.690;6.268;2023-10-13T03:56:41;10.45;;;8.60;;
59659;SDS011;45534;52.690;6.268;2023-10-13T03:59:10;20.52;;;14.00;;
59659;SDS011;45534;52.690;6.268;2023-10-13T04:01:42;18.27;;;12.07;;
59659;SDS011;45534;52.690;6.268;2023-10-13T04:04:12;21.23;;;12.85;;
59659;SDS011;45534;52.690;6.268;2023-10-13T04:06:40;15.80;;;10.27;;
59659;SDS011;45534;52.690;6.268;2023-10-13T04:09:13;14.38;;;7.90;;
59659;SDS011;45534;52.690;6.268;2023-10-13T04:14:26;11.95;;;6.80;;
59659;SDS011;45534;52.690;6.268;2023-10-13T04:17:15;11.95;;;8.15;;
59659;SDS011;45534;52.690;6.268;2023-10-13T04:19:50;10.05;;;6.22;;
59659;SDS011;45534;52.690;6.268;2023-10-13T04:22:41;16.50;;;8.07;;
59659;SDS011;45534;52.690;6.268;2023-10-13T04:25:23;22.75;;;11.95;;
59659;SDS011;45534;52.690;6.268;2023-10-13T04:28:10;17.27;;;8.60;;
59659;SDS011;45534;52.690;6.268;2023-10-13T04:30:40;11.75;;;8.68;;
59659;SDS011;45534;52.690;6.268;2023-10-13T04:33:33;16.17;;;10.10;;
59659;SDS011;45534;52.690;6.268;2023-10-13T04:36:02;16.50;;;11.35;;
59659;SDS011;45534;52.690;6.268;2023-10-13T04:38:55;18.17;;;10.30;;
59659;SDS011;45534;52.690;6.268;2023-10-13T04:41:25;18.42;;;7.65;;
59659;SDS011;45534;52.690;6.268;2023-10-13T04:43:59;16.02;;;10.07;;
59659;SDS011;45534;52.690;6.268;2023-10-13T04:46:30;17.65;;;8.98;;
59659;SDS011;45534;52.690;6.268;2023-10-13T04:49:11;12.68;;;9.15;;
59659;SDS011;45534;52.690;6.268;2023-10-13T04:51:56;18.10;;;8.05;;
59659;SDS011;45534;52.690;6.268;2023-10-13T04:57:21;14.15;;;9.65;;
59659;SDS011;45534;52.690;6.268;2023-10-13T05:00:00;11.82;;;7.07;;
59659;SDS011;45534;52.690;6.268;2023-10-13T05:02:40;15.18;;;9.70;;
59659;SDS011;45534;52.690;6.268;2023-10-13T05:05:15;15.05;;;7.63;;
59659;SDS011;45534;52.690;6.268;2023-10-13T05:07:44;10.25;;;7.25;;
59659;SDS011;45534;52.690;6.268;2023-10-13T05:10:29;14.32;;;7.57;;
59659;SDS011;45534;52.690;6.268;2023-10-13T05:13:14;13.07;;;8.48;;
59659;SDS011;45534;52.690;6.268;2023-10-13T05:15:58;11.88;;;7.55;;
59659;SDS011;45534;52.690;6.268;2023-10-13T05:18:43;11.65;;;6.47;;
59659;SDS011;45534;52.690;6.268;2023-10-13T05:21:27;8.85;;;4.50;;
59659;SDS011;45534;52.690;6.268;2023-10-13T05:24:12;7.15;;;5.60;;
59659;SDS011;45534;52.690;6.268;2023-10-13T05:26:56;7.68;;;4.95;;
59659;SDS011;45534;52.690;6.268;2023-10-13T05:29:41;9.10;;;5.55;;
59659;SDS011;45534;52.690;6.268;2023-10-13T05:32:26;6.13;;;4.78;;
59659;SDS011;45534;52.690;6.268;2023-10-13T05:35:11;6.40;;;4.22;;
59659;SDS011;45534;52.690;6.268;2023-10-13T05:37:56;7.53;;;4.97;;
59659;SDS011;45534;52.690;6.268;2023-10-13T05:40:51;6.22;;;4.55;;
59659;SDS011;45534;52.690;6.268;2023-10-13T05:43:36;4.82;;;4.28;;
59659;SDS011;45534;52.690;6.268;2023-10-13T05:46:20;13.23;;;4.30;;
59659;SDS011;45534;52.690;6.268;2023-10-13T05:48:55;4.05;;;3.70;;
59659;SDS011;45534;52.690;6.268;2023-10-13T05:51:23;5.75;;;4.38;;
59659;SDS011;45534;52.690;6.268;2023-10-13T05:53:59;5.65;;;4.32;;
59659;SDS011;45534;52.690;6.268;2023-10-13T05:56:54;4.65;;;2.95;;
59659;SDS011;45534;52.690;6.268;2023-10-13T05:59:38;4.03;;;3.42;;
59659;SDS011;45534;52.690;6.268;2023-10-13T06:02:23;4.32;;;3.30;;
59659;SDS011;45534;52.690;6.268;2023-10-13T06:05:08;3.95;;;3.35;;
59659;SDS011;45534;52.690;6.268;2023-10-13T06:07:54;5.22;;;3.13;;
59659;SDS011;45534;52.690;6.268;2023-10-13T06:10:39;10.68;;;4.88;;
59659;SDS011;45534;52.690;6.268;2023-10-13T06:13:24;8.15;;;6.45;;
59659;SDS011;45534;52.690;6.268;2023-10-13T06:16:09;6.63;;;4.70;;
59659;SDS011;45534;52.690;6.268;2023-10-13T06:18:55;12.40;;;6.95;;
59659;SDS011;45534;52.690;6.268;2023-10-13T06:21:39;6.57;;;4.80;;
59659;SDS011;45534;52.690;6.268;2023-10-13T06:24:24;10.18;;;5.20;;
59659;SDS011;45534;52.690;6.268;2023-10-13T06:27:08;9.02;;;5.72;;
59659;SDS011;45534;52.690;6.268;2023-10-13T06:29:52;9.95;;;4.55;;
59659;SDS011;45534;52.690;6.268;2023-10-13T06:32:21;11.02;;;4.65;;
59659;SDS011;45534;52.690;6.268;2023-10-13T06:34:53;7.88;;;4.32;;
59659;SDS011;45534;52.690;6.268;2023-10-13T06:37:44;8.73;;;5.22;;
59659;SDS011;45534;52.690;6.268;2023-10-13T06:40:10;8.60;;;3.90;;
59659;SDS011;45534;52.690;6.268;2023-10-13T06:42:58;6.93;;;5.20;;
59659;SDS011;45534;52.690;6.268;2023-10-13T06:45:46;7.28;;;4.57;;
59659;SDS011;45534;52.690;6.268;2023-10-13T06:48:25;16.20;;;4.43;;
59659;SDS011;45534;52.690;6.268;2023-10-13T06:50:52;11.68;;;4.60;;
59659;SDS011;45534;52.690;6.268;2023-10-13T06:53:21;7.80;;;4.18;;
59659;SDS011;45534;52.690;6.268;2023-10-13T06:55:47;10.23;;;5.40;;
59659;SDS011;45534;52.690;6.268;2023-10-13T06:58:17;9.65;;;5.18;;
59659;SDS011;45534;52.690;6.268;2023-10-13T07:00:48;10.73;;;5.18;;
59659;SDS011;45534;52.690;6.268;2023-10-13T07:03:23;5.63;;;4.13;;
59659;SDS011;45534;52.690;6.268;2023-10-13T07:05:50;14.00;;;5.75;;
59659;SDS011;45534;52.690;6.268;2023-10-13T07:08:16;8.90;;;4.90;;
59659;SDS011;45534;52.690;6.268;2023-10-13T07:10:54;10.98;;;5.07;;
59659;SDS011;45534;52.690;6.268;2023-10-13T07:13:43;7.47;;;4.35;;
59659;SDS011;45534;52.690;6.268;2023-10-13T07:16:15;9.73;;;6.80;;
59659;SDS011;45534;52.690;6.268;2023-10-13T07:18:40;12.13;;;5.22;;
59659;SDS011;45534;52.690;6.268;2023-10-13T07:21:17;6.20;;;3.92;;
59659;SDS011;45534;52.690;6.268;2023-10-13T07:23:58;7.20;;;4.30;;
59659;SDS011;45534;52.690;6.268;2023-10-13T07:26:34;11.75;;;6.00;;
59659;SDS011;45534;52.690;6.268;2023-10-13T07:29:07;11.77;;;6.68;;
59659;SDS011;45534;52.690;6.268;2023-10-13T07:31:36;12.82;;;5.72;;
59659;SDS011;45534;52.690;6.268;2023-10-13T07:34:09;11.90;;;5.18;;
59659;SDS011;45534;52.690;6.268;2023-10-13T07:36:45;9.20;;;4.68;;
59659;SDS011;45534;52.690;6.268;2023-10-13T07:39:11;9.43;;;5.30;;
59659;SDS011;45534;52.690;6.268;2023-10-13T07:41:50;31.38;;;8.55;;
59659;SDS011;45534;52.690;6.268;2023-10-13T07:44:29;16.67;;;6.13;;
59659;SDS011;45534;52.690;6.268;2023-10-13T07:46:58;12.48;;;8.65;;
59659;SDS011;45534;52.690;6.268;2023-10-13T07:49:33;8.83;;;6.40;;
59659;SDS011;45534;52.690;6.268;2023-10-13T07:52:09;17.75;;;5.45;;
59659;SDS011;45534;52.690;6.268;2023-10-13T07:54:44;14.90;;;6.22;;
59659;SDS011;45534;52.690;6.268;2023-10-13T07:57:30;8.50;;;4.57;;
59659;SDS011;45534;52.690;6.268;2023-10-13T07:59:55;16.00;;;5.47;;
59659;SDS011;45534;52.690;6.268;2023-10-13T08:02:36;7.00;;;4.40;;
59659;SDS011;45534;52.690;6.268;2023-10-13T08:05:15;12.15;;;5.60;;
59659;SDS011;45534;52.690;6.268;2023-10-13T08:07:54;11.48;;;5.90;;
59659;SDS011;45534;52.690;6.268;2023-10-13T08:10:21;21.88;;;7.70;;
59659;SDS011;45534;52.690;6.268;2023-10-13T08:12:54;12.77;;;6.80;;
59659;SDS011;45534;52.690;6.268;2023-10-13T08:15:23;17.58;;;5.20;;
59659;SDS011;45534;52.690;6.268;2023-10-13T08:18:12;24.45;;;7.72;;
59659;SDS011;45534;52.690;6.268;2023-10-13T08:20:58;12.65;;;7.55;;
59659;SDS011;45534;52.690;6.268;2023-10-13T08:23:31;9.98;;;6.70;;
59659;SDS011;45534;52.690;6.268;2023-10-13T08:26:20;11.57;;;7.18;;
59659;SDS011;45534;52.690;6.268;2023-10-13T08:29:07;22.55;;;8.45;;
59659;SDS011;45534;52.690;6.268;2023-10-13T08:31:51;14.88;;;7.85;;
59659;SDS011;45534;52.690;6.268;2023-10-13T08:34:39;15.45;;;7.40;;
59659;SDS011;45534;52.690;6.268;2023-10-13T08:37:25;17.48;;;7.45;;
59659;SDS011;45534;52.690;6.268;2023-10-13T08:39:52;12.63;;;7.53;;
59659;SDS011;45534;52.690;6.268;2023-10-13T08:45:09;11.40;;;7.15;;
59659;SDS011;45534;52.690;6.268;2023-10-13T08:47:49;13.77;;;6.57;;
59659;SDS011;45534;52.690;6.268;2023-10-13T08:50:22;12.30;;;6.38;;
59659;SDS011;45534;52.690;6.268;2023-10-13T08:53:07;10.50;;;5.75;;
59659;SDS011;45534;52.690;6.268;2023-10-13T08:58:40;11.48;;;6.88;;
59659;SDS011;45534;52.690;6.268;2023-10-13T09:03:59;7.53;;;5.38;;
59659;SDS011;45534;52.690;6.268;2023-10-13T09:06:45;14.52;;;5.85;;
59659;SDS011;45534;52.690;6.268;2023-10-13T09:12:28;8.27;;;5.78;;
59659;SDS011;45534;52.690;6.268;2023-10-13T09:14:57;9.30;;;6.05;;
59659;SDS011;45534;52.690;6.268;2023-10-13T09:17:29;17.17;;;6.53;;
59659;SDS011;45534;52.690;6.268;2023-10-13T09:20:01;9.70;;;5.13;;
59659;SDS011;45534;52.690;6.268;2023-10-13T09:22:48;10.60;;;7.15;;
59659;SDS011;45534;52.690;6.268;2023-10-13T09:25:27;14.43;;;6.75;;
59659;SDS011;45534;52.690;6.268;2023-10-13T09:27:58;14.02;;;5.95;;
59659;SDS011;45534;52.690;6.268;2023-10-13T09:30:25;8.63;;;5.60;;
59659;SDS011;45534;52.690;6.268;2023-10-13T09:33:03;14.07;;;6.07;;
59659;SDS011;45534;52.690;6.268;2023-10-13T09:35:30;12.43;;;6.55;;
59659;SDS011;45534;52.690;6.268;2023-10-13T09:38:00;10.93;;;4.85;;
59659;SDS011;45534;52.690;6.268;2023-10-13T09:40:29;11.52;;;4.68;;
59659;SDS011;45534;52.690;6.268;2023-10-13T09:42:58;11.35;;;5.95;;
59659;SDS011;45534;52.690;6.268;2023-10-13T09:45:33;9.30;;;6.82;;
59659;SDS011;45534;52.690;6.268;2023-10-13T09:48:19;19.77;;;7.40;;
59659;SDS011;45534;52.690;6.268;2023-10-13T09:50:51;12.27;;;6.93;;
59659;SDS011;45534;52.690;6.268;2023-10-13T09:53:21;9.77;;;7.30;;
59659;SDS011;45534;52.690;6.268;2023-10-13T09:58:48;5.05;;;4.32;;
59659;SDS011;45534;52.690;6.268;2023-10-13T10:01:24;22.33;;;10.90;;
59659;SDS011;45534;52.690;6.268;2023-10-13T10:04:09;7.38;;;5.30;;
59659;SDS011;45534;52.690;6.268;2023-10-13T10:06:51;9.60;;;6.43;;
59659;SDS011;45534;52.690;6.268;2023-10-13T10:09:28;16.35;;;7.43;;
59659;SDS011;45534;52.690;6.268;2023-10-13T10:17:05;12.68;;;5.40;;
59659;SDS011;45534;52.690;6.268;2023-10-13T10:19:51;11.95;;;5.68;;
59659;SDS011;45534;52.690;6.268;2023-10-13T10:22:31;14.48;;;7.03;;
59659;SDS011;45534;52.690;6.268;2023-10-13T10:25:04;11.98;;;7.30;;
59659;SDS011;45534;52.690;6.268;2023-10-13T10:27:55;15.18;;;6.20;;
59659;SDS011;45534;52.690;6.268;2023-10-13T10:30:26;23.17;;;6.13;;
59659;SDS011;45534;52.690;6.268;2023-10-13T10:32:56;15.50;;;6.93;;
59659;SDS011;45534;52.690;6.268;2023-10-13T10:35:26;11.00;;;6.18;;
59659;SDS011;45534;52.690;6.268;2023-10-13T10:37:58;19.27;;;7.55;;
59659;SDS011;45534;52.690;6.268;2023-10-13T10:40:48;12.48;;;7.68;;
59659;SDS011;45534;52.690;6.268;2023-10-13T10:43:17;11.65;;;6.88;;
59659;SDS011;45534;52.690;6.268;2023-10-13T10:45:47;17.90;;;7.30;;
59659;SDS011;45534;52.690;6.268;2023-10-13T10:48:16;14.38;;;7.93;;
59659;SDS011;45534;52.690;6.268;2023-10-13T10:50:52;12.02;;;6.53;;
59659;SDS011;45534;52.690;6.268;2023-10-13T10:53:21;12.02;;;6.93;;
59659;SDS011;45534;52.690;6.268;2023-10-13T10:55:48;9.77;;;5.53;;
59659;SDS011;45534;52.690;6.268;2023-10-13T10:58:14;13.38;;;6.78;;
59659;SDS011;45534;52.690;6.268;2023-10-13T11:01:07;11.50;;;6.23;;
59659;SDS011;45534;52.690;6.268;2023-10-13T11:03:37;17.25;;;10.63;;
59659;SDS011;45534;52.690;6.268;2023-10-13T11:06:06;10.35;;;4.65;;
59659;SDS011;45534;52.690;6.268;2023-10-13T11:08:40;12.43;;;6.10;;
59659;SDS011;45534;52.690;6.268;2023-10-13T11:11:06;11.20;;;5.55;;
59659;SDS011;45534;52.690;6.268;2023-10-13T11:13:43;9.93;;;6.15;;
59659;SDS011;45534;52.690;6.268;2023-10-13T11:16:28;16.92;;;5.38;;
59659;SDS011;45534;52.690;6.268;2023-10-13T11:19:03;12.93;;;6.30;;
59659;SDS011;45534;52.690;6.268;2023-10-13T11:21:32;12.30;;;5.40;;
59659;SDS011;45534;52.690;6.268;2023-10-13T11:23:57;11.77;;;5.97;;
59659;SDS011;45534;52.690;6.268;2023-10-13T11:26:34;11.15;;;4.35;;
59659;SDS011;45534;52.690;6.268;2023-10-13T11:29:00;15.65;;;9.40;;
59659;SDS011;45534;52.690;6.268;2023-10-13T11:31:35;9.85;;;7.78;;
59659;SDS011;45534;52.690;6.268;2023-10-13T11:34:02;23.98;;;7.75;;
59659;SDS011;45534;52.690;6.268;2023-10-13T11:36:31;16.10;;;6.30;;
59659;SDS011;45534;52.690;6.268;2023-10-13T11:38:58;13.45;;;6.63;;
59659;SDS011;45534;52.690;6.268;2023-10-13T11:41:24;8.90;;;7.00;;
59659;SDS011;45534;52.690;6.268;2023-10-13T11:43:58;12.52;;;7.70;;
59659;SDS011;45534;52.690;6.268;2023-10-13T11:46:49;19.35;;;7.20;;
59659;SDS011;45534;52.690;6.268;2023-10-13T11:49:21;15.93;;;7.88;;
59659;SDS011;45534;52.690;6.268;2023-10-13T11:51:52;21.13;;;8.65;;
59659;SDS011;45534;52.690;6.268;2023-10-13T11:54:41;11.55;;;6.45;;
59659;SDS011;45534;52.690;6.268;2023-10-13T11:57:07;14.10;;;7.75;;
59659;SDS011;45534;52.690;6.268;2023-10-13T11:59:33;7.15;;;5.05;;
59659;SDS011;45534;52.690;6.268;2023-10-13T12:02:01;17.13;;;5.95;;
59659;SDS011;45534;52.690;6.268;2023-10-13T12:04:36;21.33;;;11.02;;
59659;SDS011;45534;52.690;6.268;2023-10-13T12:07:14;9.93;;;5.82;;
59659;SDS011;45534;52.690;6.268;2023-10-13T12:09:45;10.35;;;4.32;;
59659;SDS011;45534;52.690;6.268;2023-10-13T12:12:22;8.23;;;4.80;;
59659;SDS011;45534;52.690;6.268;2023-10-13T12:14:52;15.20;;;5.97;;
59659;SDS011;45534;52.690;6.268;2023-10-13T12:17:29;14.70;;;5.60;;
59659;SDS011;45534;52.690;6.268;2023-10-13T12:20:04;9.48;;;5.07;;
59659;SDS011;45534;52.690;6.268;2023-10-13T12:22:35;9.05;;;5.55;;
59659;SDS011;45534;52.690;6.268;2023-10-13T12:25:04;10.90;;;5.80;;
59659;SDS011;45534;52.690;6.268;2023-10-13T12:27:44;12.43;;;5.68;;
59659;SDS011;45534;52.690;6.268;2023-10-13T12:30:13;10.55;;;5.00;;
59659;SDS011;45534;52.690;6.268;2023-10-13T12:32:42;12.85;;;7.40;;
59659;SDS011;45534;52.690;6.268;2023-10-13T12:35:19;17.58;;;6.82;;
59659;SDS011;45534;52.690;6.268;2023-10-13T12:38:02;55.05;;;8.82;;
59659;SDS011;45534;52.690;6.268;2023-10-13T12:40:31;38.28;;;7.28;;
59659;SDS011;45534;52.690;6.268;2023-10-13T12:43:26;8.68;;;5.22;;
59659;SDS011;45534;52.690;6.268;2023-10-13T12:46:10;14.00;;;7.70;;
59659;SDS011;45534;52.690;6.268;2023-10-13T12:48:54;8.10;;;5.50;;
59659;SDS011;45534;52.690;6.268;2023-10-13T12:51:29;11.25;;;5.78;;
59659;SDS011;45534;52.690;6.268;2023-10-13T12:53:57;18.45;;;7.60;;
59659;SDS011;45534;52.690;6.268;2023-10-13T12:56:39;18.70;;;7.05;;
59659;SDS011;45534;52.690;6.268;2023-10-13T12:59:10;17.33;;;5.43;;
59659;SDS011;45534;52.690;6.268;2023-10-13T13:01:38;10.05;;;4.63;;
59659;SDS011;45534;52.690;6.268;2023-10-13T13:04:11;12.02;;;7.60;;
59659;SDS011;45534;52.690;6.268;2023-10-13T13:06:46;11.07;;;5.18;;
59659;SDS011;45534;52.690;6.268;2023-10-13T13:09:12;12.32;;;6.03;;
59659;SDS011;45534;52.690;6.268;2023-10-13T13:11:38;12.35;;;7.25;;
59659;SDS011;45534;52.690;6.268;2023-10-13T13:14:07;19.02;;;6.25;;
59659;SDS011;45534;52.690;6.268;2023-10-13T13:16:33;17.60;;;6.72;;
59659;SDS011;45534;52.690;6.268;2023-10-13T13:19:00;35.10;;;6.90;;
59659;SDS011;45534;52.690;6.268;2023-10-13T13:21:35;22.15;;;8.93;;
59659;SDS011;45534;52.690;6.268;2023-10-13T13:24:02;11.77;;;6.28;;
59659;SDS011;45534;52.690;6.268;2023-10-13T13:26:29;6.35;;;4.63;;
59659;SDS011;45534;52.690;6.268;2023-10-13T13:28:56;22.42;;;11.35;;
59659;SDS011;45534;52.690;6.268;2023-10-13T13:31:22;11.38;;;5.63;;
59659;SDS011;45534;52.690;6.268;2023-10-13T13:33:51;13.93;;;7.05;;
59659;SDS011;45534;52.690;6.268;2023-10-13T13:36:17;8.90;;;5.10;;
59659;SDS011;45534;52.690;6.268;2023-10-13T13:38:44;10.57;;;7.10;;
59659;SDS011;45534;52.690;6.268;2023-10-13T13:41:25;12.48;;;6.60;;
59659;SDS011;45534;52.690;6.268;2023-10-13T13:43:50;23.27;;;8.35;;
59659;SDS011;45534;52.690;6.268;2023-10-13T13:46:23;8.35;;;5.45;;
59659;SDS011;45534;52.690;6.268;2023-10-13T13:48:52;21.08;;;12.63;;
59659;SDS011;45534;52.690;6.268;2023-10-13T13:51:32;19.15;;;11.68;;
59659;SDS011;45534;52.690;6.268;2023-10-13T13:53:58;19.10;;;6.85;;
59659;SDS011;45534;52.690;6.268;2023-10-13T13:56:25;7.75;;;5.80;;
59659;SDS011;45534;52.690;6.268;2023-10-13T13:58:54;15.88;;;7.80;;
59659;SDS011;45534;52.690;6.268;2023-10-13T14:01:32;17.98;;;6.80;;
59659;SDS011;45534;52.690;6.268;2023-10-13T14:04:00;17.67;;;6.72;;
59659;SDS011;45534;52.690;6.268;2023-10-13T14:06:28;12.20;;;7.22;;
59659;SDS011;45534;52.690;6.268;2023-10-13T14:08:58;11.50;;;7.70;;
59659;SDS011;45534;52.690;6.268;2023-10-13T14:11:41;19.80;;;7.80;;
59659;SDS011;45534;52.690;6.268;2023-10-13T14:14:25;17.52;;;8.88;;
59659;SDS011;45534;52.690;6.268;2023-10-13T14:16:51;8.15;;;5.20;;
59659;SDS011;45534;52.690;6.268;2023-10-13T14:19:18;18.30;;;11.00;;
59659;SDS011;45534;52.690;6.268;2023-10-13T14:21:54;13.85;;;6.95;;
59659;SDS011;45534;52.690;6.268;2023-10-13T14:24:23;16.65;;;8.93;;
59659;SDS011;45534;52.690;6.268;2023-10-13T14:26:56;12.73;;;7.80;;
59659;SDS011;45534;52.690;6.268;2023-10-13T14:29:32;16.17;;;6.90;;
59659;SDS011;45534;52.690;6.268;2023-10-13T14:31:58;15.68;;;6.63;;
59659;SDS011;45534;52.690;6.268;2023-10-13T14:34:24;11.68;;;6.78;;
59659;SDS011;45534;52.690;6.268;2023-10-13T14:36:51;18.00;;;8.85;;
59659;SDS011;45534;52.690;6.268;2023-10-13T14:39:19;16.30;;;6.57;;
59659;SDS011;45534;52.690;6.268;2023-10-13T14:41:46;9.50;;;7.07;;
59659;SDS011;45534;52.690;6.268;2023-10-13T14:44:13;8.05;;;6.80;;
59659;SDS011;45534;52.690;6.268;2023-10-13T14:46:39;29.45;;;13.88;;
59659;SDS011;45534;52.690;6.268;2023-10-13T14:49:05;12.98;;;8.20;;
59659;SDS011;45534;52.690;6.268;2023-10-13T14:51:31;18.15;;;9.90;;
59659;SDS011;45534;52.690;6.268;2023-10-13T14:53:57;17.30;;;7.05;;
59659;SDS011;45534;52.690;6.268;2023-10-13T14:56:27;10.75;;;7.90;;
59659;SDS011;45534;52.690;6.268;2023-10-13T14:58:53;15.00;;;7.88;;
59659;SDS011;45534;52.690;6.268;2023-10-13T15:01:22;13.88;;;7.70;;
59659;SDS011;45534;52.690;6.268;2023-10-13T15:03:52;14.25;;;7.43;;
59659;SDS011;45534;52.690;6.268;2023-10-13T15:06:23;15.50;;;8.68;;
59659;SDS011;45534;52.690;6.268;2023-10-13T15:08:51;11.50;;;7.10;;
59659;SDS011;45534;52.690;6.268;2023-10-13T15:11:20;13.82;;;6.90;;
59659;SDS011;45534;52.690;6.268;2023-10-13T15:13:46;16.77;;;8.05;;
59659;SDS011;45534;52.690;6.268;2023-10-13T15:16:16;20.55;;;9.32;;
59659;SDS011;45534;52.690;6.268;2023-10-13T15:18:46;18.55;;;8.95;;
59659;SDS011;45534;52.690;6.268;2023-10-13T15:24:03;14.13;;;7.05;;
59659;SDS011;45534;52.690;6.268;2023-10-13T15:26:38;19.30;;;8.85;;
59659;SDS011;45534;52.690;6.268;2023-10-13T15:29:07;13.80;;;7.38;;
59659;SDS011;45534;52.690;6.268;2023-10-13T15:31:40;20.25;;;7.32;;
59659;SDS011;45534;52.690;6.268;2023-10-13T15:34:11;23.85;;;9.38;;
59659;SDS011;45534;52.690;6.268;2023-10-13T15:36:41;17.35;;;7.53;;
59659;SDS011;45534;52.690;6.268;2023-10-13T15:39:11;13.20;;;7.82;;
59659;SDS011;45534;52.690;6.268;2023-10-13T15:41:40;15.77;;;7.10;;